Etusivu
METAR-TAF:

METAR-TAF

Lentoasemat :

Lyypekki, Saksa

Leveyspiiri: 53-49N, Pituuspiiri: 010-42E, korkeus merenpinnasta: 14 m

Tämänhetkinen sää

Tämä raportti tehtiin 25 minuuttia sitten, kello 02.50 UTC
Tuuli 5 kn etelästä, vaihdellen idän/kaakon ja etelän/lounaan välillä
Lämpötila 12°C
Kosteus 82%
Ilmanpaine 1012 hPa
Näkyvyys 10 km tai enemmän

METAR: EDHL 290250Z AUTO 17005KT 120V210 9999 // SCT043/// BKN081/// OVC096/// 12/09 Q1012

Aika: 05:15 (03:15 UTC)

Sääennuste

Tämä raportti tehtiin 10 tuntia ja 15 minuuttia sitten, kello 17.00 UTC
Ennuste voimassa 28. päivästä klo 18 UTC - 28. päivään klo 21 UTC
Tuuli 3 kn kaakosta
Näkyvyys 10 km tai enemmän
Muutamia pilviä 3000 ft:n korkeudessa

TAF: EDHL 281700Z 2818/2821 14003KT 9999 FEW030

Säähavainnot ja -ennusteet yli 4000 lentoasemalta (METAR- ja TAF-raportit).

Käytössä olevat sääasemat on merkitty karttaan keltaisilla ja punaisilla pisteillä.

Aseta hiiri pisteen päälle nähdäksesi sääaseman nimen.

Klikkaa sitten nähdäksesi säähavainnot ja -ennusteet.

Kartan vaihtaminen: klikkaa mustalla rastilla varustettuja vihreitä pisteitä, niin voit zoomata sisään; viivalla varustettua vihreää pistettä, niin voit zoomata ulos tai vihreitä nuolia, niin pääset viereisille kartoille.


METAR-TAF: